sensor_id;sensor_type;location;lat;lon;timestamp;temperature;humidity
74666;DHT22;71408;50.106;8.694;2023-07-20T00:02:06;27.60;38.80
74666;DHT22;71408;50.106;8.694;2023-07-20T00:04:33;27.60;38.80
74666;DHT22;71408;50.106;8.694;2023-07-20T00:06:58;27.60;38.80
74666;DHT22;71408;50.106;8.694;2023-07-20T00:09:26;27.60;38.70
74666;DHT22;71408;50.106;8.694;2023-07-20T00:11:52;27.60;38.80
74666;DHT22;71408;50.106;8.694;2023-07-20T00:14:17;27.60;38.90
74666;DHT22;71408;50.106;8.694;2023-07-20T00:16:44;27.60;38.90
74666;DHT22;71408;50.106;8.694;2023-07-20T00:19:14;27.60;38.90
74666;DHT22;71408;50.106;8.694;2023-07-20T00:21:41;27.60;38.80
74666;DHT22;71408;50.106;8.694;2023-07-20T00:24:07;27.60;38.90
74666;DHT22;71408;50.106;8.694;2023-07-20T00:26:33;27.60;38.90
74666;DHT22;71408;50.106;8.694;2023-07-20T00:28:59;27.60;38.80
74666;DHT22;71408;50.106;8.694;2023-07-20T00:31:24;27.60;38.90
74666;DHT22;71408;50.106;8.694;2023-07-20T00:33:50;27.50;38.90
74666;DHT22;71408;50.106;8.694;2023-07-20T00:36:16;27.60;38.90
74666;DHT22;71408;50.106;8.694;2023-07-20T00:38:42;27.50;38.80
74666;DHT22;71408;50.106;8.694;2023-07-20T00:41:07;27.50;38.90
74666;DHT22;71408;50.106;8.694;2023-07-20T00:43:33;27.50;38.80
74666;DHT22;71408;50.106;8.694;2023-07-20T00:45:58;27.50;39.00
74666;DHT22;71408;50.106;8.694;2023-07-20T00:48:24;27.50;38.90
74666;DHT22;71408;50.106;8.694;2023-07-20T00:50:50;27.50;38.90
74666;DHT22;71408;50.106;8.694;2023-07-20T00:53:16;27.50;38.90
74666;DHT22;71408;50.106;8.694;2023-07-20T00:55:41;27.50;38.90
74666;DHT22;71408;50.106;8.694;2023-07-20T00:58:07;27.50;39.00
74666;DHT22;71408;50.106;8.694;2023-07-20T01:00:33;27.50;39.00
74666;DHT22;71408;50.106;8.694;2023-07-20T01:02:59;27.50;39.10
74666;DHT22;71408;50.106;8.694;2023-07-20T01:05:25;27.50;39.00
74666;DHT22;71408;50.106;8.694;2023-07-20T01:07:58;27.50;39.10
74666;DHT22;71408;50.106;8.694;2023-07-20T01:10:36;27.50;39.10
74666;DHT22;71408;50.106;8.694;2023-07-20T01:13:04;27.50;39.20
74666;DHT22;71408;50.106;8.694;2023-07-20T01:15:32;27.50;39.10
74666;DHT22;71408;50.106;8.694;2023-07-20T01:17:58;27.50;39.10
74666;DHT22;71408;50.106;8.694;2023-07-20T01:20:26;27.50;39.10
74666;DHT22;71408;50.106;8.694;2023-07-20T01:23:01;27.50;39.20
74666;DHT22;71408;50.106;8.694;2023-07-20T01:25:34;27.50;39.20
74666;DHT22;71408;50.106;8.694;2023-07-20T01:33:58;27.40;39.30
74666;DHT22;71408;50.106;8.694;2023-07-20T01:36:24;27.40;39.20
74666;DHT22;71408;50.106;8.694;2023-07-20T01:38:51;27.40;39.30
74666;DHT22;71408;50.106;8.694;2023-07-20T01:41:17;27.40;39.30
74666;DHT22;71408;50.106;8.694;2023-07-20T01:43:43;27.40;39.30
74666;DHT22;71408;50.106;8.694;2023-07-20T01:46:08;27.40;39.30
74666;DHT22;71408;50.106;8.694;2023-07-20T01:48:34;27.40;39.30
74666;DHT22;71408;50.106;8.694;2023-07-20T01:50:59;27.40;39.40
74666;DHT22;71408;50.106;8.694;2023-07-20T01:53:25;27.40;39.30
74666;DHT22;71408;50.106;8.694;2023-07-20T01:55:52;27.40;39.30
74666;DHT22;71408;50.106;8.694;2023-07-20T01:58:17;27.40;39.40
74666;DHT22;71408;50.106;8.694;2023-07-20T02:00:43;27.40;39.40
74666;DHT22;71408;50.106;8.694;2023-07-20T02:03:09;27.40;39.50
74666;DHT22;71408;50.106;8.694;2023-07-20T02:05:34;27.40;39.50
74666;DHT22;71408;50.106;8.694;2023-07-20T02:08:00;27.30;39.50
74666;DHT22;71408;50.106;8.694;2023-07-20T02:10:25;27.30;39.40
74666;DHT22;71408;50.106;8.694;2023-07-20T02:12:51;27.40;39.60
74666;DHT22;71408;50.106;8.694;2023-07-20T02:15:16;27.40;39.50
74666;DHT22;71408;50.106;8.694;2023-07-20T02:17:44;27.40;39.50
74666;DHT22;71408;50.106;8.694;2023-07-20T02:20:09;27.40;39.50
74666;DHT22;71408;50.106;8.694;2023-07-20T02:22:36;27.30;40.10
74666;DHT22;71408;50.106;8.694;2023-07-20T02:25:01;27.30;39.50
74666;DHT22;71408;50.106;8.694;2023-07-20T02:27:27;27.30;39.50
74666;DHT22;71408;50.106;8.694;2023-07-20T02:29:52;27.30;39.40
74666;DHT22;71408;50.106;8.694;2023-07-20T02:32:18;27.30;39.50
74666;DHT22;71408;50.106;8.694;2023-07-20T02:34:43;27.30;39.40
74666;DHT22;71408;50.106;8.694;2023-07-20T02:37:08;27.30;39.50
74666;DHT22;71408;50.106;8.694;2023-07-20T02:39:34;27.30;39.50
74666;DHT22;71408;50.106;8.694;2023-07-20T02:41:59;27.30;39.50
74666;DHT22;71408;50.106;8.694;2023-07-20T02:44:25;27.30;39.50
74666;DHT22;71408;50.106;8.694;2023-07-20T02:46:50;27.30;39.50
74666;DHT22;71408;50.106;8.694;2023-07-20T02:49:16;27.30;39.60
74666;DHT22;71408;50.106;8.694;2023-07-20T02:51:41;27.30;39.60
74666;DHT22;71408;50.106;8.694;2023-07-20T02:54:07;27.30;39.60
74666;DHT22;71408;50.106;8.694;2023-07-20T02:56:33;27.30;39.60
74666;DHT22;71408;50.106;8.694;2023-07-20T02:58:59;27.30;39.60
74666;DHT22;71408;50.106;8.694;2023-07-20T03:01:24;27.30;39.70
74666;DHT22;71408;50.106;8.694;2023-07-20T03:03:49;27.30;39.60
74666;DHT22;71408;50.106;8.694;2023-07-20T03:06:15;27.30;39.70
74666;DHT22;71408;50.106;8.694;2023-07-20T03:08:41;27.30;39.60
74666;DHT22;71408;50.106;8.694;2023-07-20T03:11:13;27.20;39.60
74666;DHT22;71408;50.106;8.694;2023-07-20T03:13:39;27.20;39.60
74666;DHT22;71408;50.106;8.694;2023-07-20T03:16:04;27.20;39.60
74666;DHT22;71408;50.106;8.694;2023-07-20T03:18:30;27.30;39.70
74666;DHT22;71408;50.106;8.694;2023-07-20T03:20:55;27.20;39.70
74666;DHT22;71408;50.106;8.694;2023-07-20T03:23:21;27.20;39.60
74666;DHT22;71408;50.106;8.694;2023-07-20T03:25:46;27.30;39.70
74666;DHT22;71408;50.106;8.694;2023-07-20T03:28:11;27.30;39.70
74666;DHT22;71408;50.106;8.694;2023-07-20T03:30:37;27.30;39.70
74666;DHT22;71408;50.106;8.694;2023-07-20T03:33:02;27.20;39.60
74666;DHT22;71408;50.106;8.694;2023-07-20T03:35:29;27.20;39.60
74666;DHT22;71408;50.106;8.694;2023-07-20T03:37:55;27.20;39.70
74666;DHT22;71408;50.106;8.694;2023-07-20T03:40:20;27.20;39.70
74666;DHT22;71408;50.106;8.694;2023-07-20T03:42:45;27.20;39.70
74666;DHT22;71408;50.106;8.694;2023-07-20T03:45:11;27.20;39.70
74666;DHT22;71408;50.106;8.694;2023-07-20T03:47:37;27.20;39.70
74666;DHT22;71408;50.106;8.694;2023-07-20T03:50:02;27.20;39.70
74666;DHT22;71408;50.106;8.694;2023-07-20T03:52:28;27.20;39.70
74666;DHT22;71408;50.106;8.694;2023-07-20T03:54:54;27.20;39.70
74666;DHT22;71408;50.106;8.694;2023-07-20T03:57:19;27.20;39.70
74666;DHT22;71408;50.106;8.694;2023-07-20T03:59:45;27.20;39.70
74666;DHT22;71408;50.106;8.694;2023-07-20T04:02:11;27.20;39.70
74666;DHT22;71408;50.106;8.694;2023-07-20T04:04:37;27.20;39.80
74666;DHT22;71408;50.106;8.694;2023-07-20T04:07:02;27.20;39.70
74666;DHT22;71408;50.106;8.694;2023-07-20T04:09:28;27.20;39.80
74666;DHT22;71408;50.106;8.694;2023-07-20T04:11:54;27.20;39.80
74666;DHT22;71408;50.106;8.694;2023-07-20T04:14:19;27.20;39.80
74666;DHT22;71408;50.106;8.694;2023-07-20T04:16:46;27.20;39.80
74666;DHT22;71408;50.106;8.694;2023-07-20T04:19:11;27.20;39.80
74666;DHT22;71408;50.106;8.694;2023-07-20T04:21:39;27.20;39.70
74666;DHT22;71408;50.106;8.694;2023-07-20T04:24:05;27.20;39.80
74666;DHT22;71408;50.106;8.694;2023-07-20T04:26:30;27.10;39.80
74666;DHT22;71408;50.106;8.694;2023-07-20T04:28:56;27.20;39.80
74666;DHT22;71408;50.106;8.694;2023-07-20T04:31:21;27.10;39.80
74666;DHT22;71408;50.106;8.694;2023-07-20T04:33:47;27.10;39.80
74666;DHT22;71408;50.106;8.694;2023-07-20T04:36:12;27.10;39.80
74666;DHT22;71408;50.106;8.694;2023-07-20T04:38:39;27.10;39.80
74666;DHT22;71408;50.106;8.694;2023-07-20T04:41:05;27.10;39.80
74666;DHT22;71408;50.106;8.694;2023-07-20T04:43:30;27.10;39.80
74666;DHT22;71408;50.106;8.694;2023-07-20T04:45:56;27.10;39.80
74666;DHT22;71408;50.106;8.694;2023-07-20T04:48:21;27.10;39.80
74666;DHT22;71408;50.106;8.694;2023-07-20T04:50:47;27.10;39.90
74666;DHT22;71408;50.106;8.694;2023-07-20T04:53:12;27.10;39.80
74666;DHT22;71408;50.106;8.694;2023-07-20T04:55:38;27.10;39.90
74666;DHT22;71408;50.106;8.694;2023-07-20T04:58:04;27.10;39.90
74666;DHT22;71408;50.106;8.694;2023-07-20T05:00:30;27.10;39.90
74666;DHT22;71408;50.106;8.694;2023-07-20T05:02:55;27.10;39.90
74666;DHT22;71408;50.106;8.694;2023-07-20T05:05:21;27.10;39.90
74666;DHT22;71408;50.106;8.694;2023-07-20T05:07:47;27.00;39.90
74666;DHT22;71408;50.106;8.694;2023-07-20T05:10:12;27.00;39.90
74666;DHT22;71408;50.106;8.694;2023-07-20T05:12:38;27.00;39.80
74666;DHT22;71408;50.106;8.694;2023-07-20T05:15:03;27.00;39.90
74666;DHT22;71408;50.106;8.694;2023-07-20T05:17:29;27.00;39.90
74666;DHT22;71408;50.106;8.694;2023-07-20T05:19:54;27.00;39.90
74666;DHT22;71408;50.106;8.694;2023-07-20T05:22:20;27.00;40.00
74666;DHT22;71408;50.106;8.694;2023-07-20T05:24:45;27.00;39.90
74666;DHT22;71408;50.106;8.694;2023-07-20T05:27:11;27.00;39.90
74666;DHT22;71408;50.106;8.694;2023-07-20T05:29:37;27.00;39.90
74666;DHT22;71408;50.106;8.694;2023-07-20T05:32:03;27.00;39.90
74666;DHT22;71408;50.106;8.694;2023-07-20T05:34:28;27.00;40.00
74666;DHT22;71408;50.106;8.694;2023-07-20T05:36:54;27.00;40.00
74666;DHT22;71408;50.106;8.694;2023-07-20T05:39:20;27.00;40.00
74666;DHT22;71408;50.106;8.694;2023-07-20T05:41:45;27.00;39.90
74666;DHT22;71408;50.106;8.694;2023-07-20T05:44:11;27.00;39.90
74666;DHT22;71408;50.106;8.694;2023-07-20T05:46:36;27.00;40.00
74666;DHT22;71408;50.106;8.694;2023-07-20T05:49:02;27.00;40.00
74666;DHT22;71408;50.106;8.694;2023-07-20T05:51:27;27.00;40.00
74666;DHT22;71408;50.106;8.694;2023-07-20T05:53:53;27.00;40.00
74666;DHT22;71408;50.106;8.694;2023-07-20T05:56:18;27.00;40.00
74666;DHT22;71408;50.106;8.694;2023-07-20T05:58:44;27.00;40.00
74666;DHT22;71408;50.106;8.694;2023-07-20T06:01:09;27.10;40.00
74666;DHT22;71408;50.106;8.694;2023-07-20T06:03:35;27.00;40.00
74666;DHT22;71408;50.106;8.694;2023-07-20T06:06:00;27.00;40.00
74666;DHT22;71408;50.106;8.694;2023-07-20T06:08:30;27.00;40.00
74666;DHT22;71408;50.106;8.694;2023-07-20T06:10:56;27.10;40.00
74666;DHT22;71408;50.106;8.694;2023-07-20T06:13:22;27.10;40.00
74666;DHT22;71408;50.106;8.694;2023-07-20T06:15:47;27.10;40.10
74666;DHT22;71408;50.106;8.694;2023-07-20T06:18:13;27.10;40.00
74666;DHT22;71408;50.106;8.694;2023-07-20T06:20:38;27.10;40.00
74666;DHT22;71408;50.106;8.694;2023-07-20T06:23:04;27.10;40.00
74666;DHT22;71408;50.106;8.694;2023-07-20T06:25:30;27.10;40.10
74666;DHT22;71408;50.106;8.694;2023-07-20T06:27:55;27.10;40.10
74666;DHT22;71408;50.106;8.694;2023-07-20T06:30:21;27.10;40.00
74666;DHT22;71408;50.106;8.694;2023-07-20T06:32:47;27.10;40.00
74666;DHT22;71408;50.106;8.694;2023-07-20T06:35:13;27.10;40.10
74666;DHT22;71408;50.106;8.694;2023-07-20T06:37:38;27.10;40.10
74666;DHT22;71408;50.106;8.694;2023-07-20T06:40:04;27.10;40.10
74666;DHT22;71408;50.106;8.694;2023-07-20T06:42:30;27.10;40.10
74666;DHT22;71408;50.106;8.694;2023-07-20T06:44:56;27.10;40.20
74666;DHT22;71408;50.106;8.694;2023-07-20T06:47:21;27.10;40.20
74666;DHT22;71408;50.106;8.694;2023-07-20T06:49:47;27.10;40.20
74666;DHT22;71408;50.106;8.694;2023-07-20T06:52:12;26.60;40.90
74666;DHT22;71408;50.106;8.694;2023-07-20T06:54:38;26.10;41.80
74666;DHT22;71408;50.106;8.694;2023-07-20T06:57:04;25.70;42.60
74666;DHT22;71408;50.106;8.694;2023-07-20T06:59:30;25.40;43.80
74666;DHT22;71408;50.106;8.694;2023-07-20T07:01:55;25.40;43.80
74666;DHT22;71408;50.106;8.694;2023-07-20T07:04:21;25.40;43.80
74666;DHT22;71408;50.106;8.694;2023-07-20T07:06:46;25.30;44.10
74666;DHT22;71408;50.106;8.694;2023-07-20T07:09:12;25.30;43.70
74666;DHT22;71408;50.106;8.694;2023-07-20T07:11:37;25.20;43.90
74666;DHT22;71408;50.106;8.694;2023-07-20T07:14:03;25.10;44.80
74666;DHT22;71408;50.106;8.694;2023-07-20T07:16:28;25.20;44.10
74666;DHT22;71408;50.106;8.694;2023-07-20T07:18:54;25.20;44.20
74666;DHT22;71408;50.106;8.694;2023-07-20T07:21:20;25.10;43.90
74666;DHT22;71408;50.106;8.694;2023-07-20T07:23:46;25.10;44.20
74666;DHT22;71408;50.106;8.694;2023-07-20T07:26:12;25.10;44.90
74666;DHT22;71408;50.106;8.694;2023-07-20T07:28:37;25.10;44.40
74666;DHT22;71408;50.106;8.694;2023-07-20T07:31:06;25.10;44.30
74666;DHT22;71408;50.106;8.694;2023-07-20T07:33:32;25.10;44.30
74666;DHT22;71408;50.106;8.694;2023-07-20T07:35:57;24.90;44.40
74666;DHT22;71408;50.106;8.694;2023-07-20T07:38:23;25.00;44.40
74666;DHT22;71408;50.106;8.694;2023-07-20T07:40:48;25.00;44.30
74666;DHT22;71408;50.106;8.694;2023-07-20T07:43:14;24.90;44.70
74666;DHT22;71408;50.106;8.694;2023-07-20T07:45:40;24.70;45.10
74666;DHT22;71408;50.106;8.694;2023-07-20T07:48:06;24.60;45.40
74666;DHT22;71408;50.106;8.694;2023-07-20T07:50:31;24.60;45.50
74666;DHT22;71408;50.106;8.694;2023-07-20T07:52:57;24.50;45.70
74666;DHT22;71408;50.106;8.694;2023-07-20T07:55:23;24.40;46.00
74666;DHT22;71408;50.106;8.694;2023-07-20T07:57:49;24.40;45.80
74666;DHT22;71408;50.106;8.694;2023-07-20T08:00:15;24.50;45.70
74666;DHT22;71408;50.106;8.694;2023-07-20T08:02:41;24.40;45.50
74666;DHT22;71408;50.106;8.694;2023-07-20T08:05:07;24.40;45.80
74666;DHT22;71408;50.106;8.694;2023-07-20T08:07:33;24.40;45.80
74666;DHT22;71408;50.106;8.694;2023-07-20T08:09:59;24.50;45.40
74666;DHT22;71408;50.106;8.694;2023-07-20T08:12:26;24.50;45.20
74666;DHT22;71408;50.106;8.694;2023-07-20T08:14:52;24.50;45.30
74666;DHT22;71408;50.106;8.694;2023-07-20T08:17:18;24.60;45.30
74666;DHT22;71408;50.106;8.694;2023-07-20T08:19:43;24.60;45.40
74666;DHT22;71408;50.106;8.694;2023-07-20T08:22:09;24.70;44.70
74666;DHT22;71408;50.106;8.694;2023-07-20T08:24:38;24.60;44.90
74666;DHT22;71408;50.106;8.694;2023-07-20T08:27:04;24.60;44.80
74666;DHT22;71408;50.106;8.694;2023-07-20T08:29:29;24.60;44.80
74666;DHT22;71408;50.106;8.694;2023-07-20T08:31:55;24.70;44.60
74666;DHT22;71408;50.106;8.694;2023-07-20T08:34:20;24.60;44.70
74666;DHT22;71408;50.106;8.694;2023-07-20T08:36:46;24.60;44.80
74666;DHT22;71408;50.106;8.694;2023-07-20T08:39:11;24.60;45.00
74666;DHT22;71408;50.106;8.694;2023-07-20T08:41:37;24.50;44.80
74666;DHT22;71408;50.106;8.694;2023-07-20T08:44:04;24.50;45.00
74666;DHT22;71408;50.106;8.694;2023-07-20T08:46:31;24.50;45.20
74666;DHT22;71408;50.106;8.694;2023-07-20T08:48:56;24.50;45.30
74666;DHT22;71408;50.106;8.694;2023-07-20T08:51:23;24.70;45.00
74666;DHT22;71408;50.106;8.694;2023-07-20T08:53:48;24.80;44.70
74666;DHT22;71408;50.106;8.694;2023-07-20T08:56:17;24.80;44.40
74666;DHT22;71408;50.106;8.694;2023-07-20T08:58:44;24.80;44.30
74666;DHT22;71408;50.106;8.694;2023-07-20T09:01:11;24.70;44.60
74666;DHT22;71408;50.106;8.694;2023-07-20T09:03:36;24.70;44.70
74666;DHT22;71408;50.106;8.694;2023-07-20T09:06:05;24.80;44.50
74666;DHT22;71408;50.106;8.694;2023-07-20T09:08:31;24.80;44.50
74666;DHT22;71408;50.106;8.694;2023-07-20T09:10:56;24.80;44.50
74666;DHT22;71408;50.106;8.694;2023-07-20T09:13:22;24.90;44.10
74666;DHT22;71408;50.106;8.694;2023-07-20T09:15:53;24.80;43.80
74666;DHT22;71408;50.106;8.694;2023-07-20T09:18:28;24.90;43.90
74666;DHT22;71408;50.106;8.694;2023-07-20T09:21:08;24.90;43.80
74666;DHT22;71408;50.106;8.694;2023-07-20T09:23:57;24.90;43.70
74666;DHT22;71408;50.106;8.694;2023-07-20T09:26:22;25.00;43.80
74666;DHT22;71408;50.106;8.694;2023-07-20T09:28:49;25.20;43.60
74666;DHT22;71408;50.106;8.694;2023-07-20T09:31:16;25.10;43.20
74666;DHT22;71408;50.106;8.694;2023-07-20T09:33:42;25.10;43.00
74666;DHT22;71408;50.106;8.694;2023-07-20T09:36:09;25.10;43.00
74666;DHT22;71408;50.106;8.694;2023-07-20T09:38:36;25.20;43.00
74666;DHT22;71408;50.106;8.694;2023-07-20T09:41:02;25.20;42.90
74666;DHT22;71408;50.106;8.694;2023-07-20T09:43:30;25.20;42.60
74666;DHT22;71408;50.106;8.694;2023-07-20T09:45:57;25.10;42.40
74666;DHT22;71408;50.106;8.694;2023-07-20T09:48:23;25.10;42.70
74666;DHT22;71408;50.106;8.694;2023-07-20T09:50:49;25.10;42.90
74666;DHT22;71408;50.106;8.694;2023-07-20T09:53:16;25.00;42.90
74666;DHT22;71408;50.106;8.694;2023-07-20T09:55:43;25.00;43.00
74666;DHT22;71408;50.106;8.694;2023-07-20T09:58:09;24.90;43.70
74666;DHT22;71408;50.106;8.694;2023-07-20T10:00:36;25.00;43.20
74666;DHT22;71408;50.106;8.694;2023-07-20T10:03:02;24.90;43.40
74666;DHT22;71408;50.106;8.694;2023-07-20T10:05:28;24.90;43.40
74666;DHT22;71408;50.106;8.694;2023-07-20T10:07:59;24.80;43.60
74666;DHT22;71408;50.106;8.694;2023-07-20T10:10:26;24.90;43.70
74666;DHT22;71408;50.106;8.694;2023-07-20T10:12:51;25.00;43.60
74666;DHT22;71408;50.106;8.694;2023-07-20T10:15:19;25.10;43.40
74666;DHT22;71408;50.106;8.694;2023-07-20T10:17:47;25.10;43.40
74666;DHT22;71408;50.106;8.694;2023-07-20T10:20:16;25.10;43.30
74666;DHT22;71408;50.106;8.694;2023-07-20T10:22:41;25.20;43.40
74666;DHT22;71408;50.106;8.694;2023-07-20T10:25:08;25.20;42.90
74666;DHT22;71408;50.106;8.694;2023-07-20T10:27:34;25.20;42.90
74666;DHT22;71408;50.106;8.694;2023-07-20T10:30:00;25.20;42.80
74666;DHT22;71408;50.106;8.694;2023-07-20T10:32:27;25.00;42.40
74666;DHT22;71408;50.106;8.694;2023-07-20T10:34:55;25.00;42.90
74666;DHT22;71408;50.106;8.694;2023-07-20T10:42:49;25.40;42.30
74666;DHT22;71408;50.106;8.694;2023-07-20T10:45:15;25.60;42.10
74666;DHT22;71408;50.106;8.694;2023-07-20T10:47:46;25.50;42.00
74666;DHT22;71408;50.106;8.694;2023-07-20T10:50:12;25.50;41.70
74666;DHT22;71408;50.106;8.694;2023-07-20T10:52:38;25.40;41.40
74666;DHT22;71408;50.106;8.694;2023-07-20T10:55:14;25.40;41.70
74666;DHT22;71408;50.106;8.694;2023-07-20T10:57:40;25.40;41.70
74666;DHT22;71408;50.106;8.694;2023-07-20T11:00:14;25.40;42.00
74666;DHT22;71408;50.106;8.694;2023-07-20T11:02:45;25.30;41.90
74666;DHT22;71408;50.106;8.694;2023-07-20T11:07:55;25.40;41.90
74666;DHT22;71408;50.106;8.694;2023-07-20T11:10:20;25.60;41.60
74666;DHT22;71408;50.106;8.694;2023-07-20T11:15:44;25.60;41.40
74666;DHT22;71408;50.106;8.694;2023-07-20T11:18:13;25.70;41.30
74666;DHT22;71408;50.106;8.694;2023-07-20T11:20:39;25.80;41.30
74666;DHT22;71408;50.106;8.694;2023-07-20T11:23:05;25.80;41.10
74666;DHT22;71408;50.106;8.694;2023-07-20T11:25:40;25.90;41.00
74666;DHT22;71408;50.106;8.694;2023-07-20T11:28:08;25.90;40.90
74666;DHT22;71408;50.106;8.694;2023-07-20T11:30:37;26.00;40.90
74666;DHT22;71408;50.106;8.694;2023-07-20T11:33:10;26.00;40.60
74666;DHT22;71408;50.106;8.694;2023-07-20T11:35:44;26.10;40.60
74666;DHT22;71408;50.106;8.694;2023-07-20T11:38:11;26.00;40.40
74666;DHT22;71408;50.106;8.694;2023-07-20T11:40:41;26.10;40.20
74666;DHT22;71408;50.106;8.694;2023-07-20T11:43:07;26.10;40.30
74666;DHT22;71408;50.106;8.694;2023-07-20T11:45:33;26.10;40.10
74666;DHT22;71408;50.106;8.694;2023-07-20T11:47:58;26.20;40.10
74666;DHT22;71408;50.106;8.694;2023-07-20T11:50:24;26.10;40.10
74666;DHT22;71408;50.106;8.694;2023-07-20T11:52:49;26.00;40.30
74666;DHT22;71408;50.106;8.694;2023-07-20T11:55:15;26.00;40.20
74666;DHT22;71408;50.106;8.694;2023-07-20T11:57:40;26.10;40.20
74666;DHT22;71408;50.106;8.694;2023-07-20T12:00:06;26.10;40.10
74666;DHT22;71408;50.106;8.694;2023-07-20T12:02:37;26.10;40.30
74666;DHT22;71408;50.106;8.694;2023-07-20T12:05:02;26.10;40.00
74666;DHT22;71408;50.106;8.694;2023-07-20T12:07:29;26.10;40.20
74666;DHT22;71408;50.106;8.694;2023-07-20T12:10:07;26.10;40.10
74666;DHT22;71408;50.106;8.694;2023-07-20T12:12:34;26.20;40.00
74666;DHT22;71408;50.106;8.694;2023-07-20T12:15:15;26.30;39.80
74666;DHT22;71408;50.106;8.694;2023-07-20T12:17:44;26.30;39.80
74666;DHT22;71408;50.106;8.694;2023-07-20T12:20:10;26.30;39.70
74666;DHT22;71408;50.106;8.694;2023-07-20T12:22:39;26.20;39.80
74666;DHT22;71408;50.106;8.694;2023-07-20T12:25:08;26.30;39.90
74666;DHT22;71408;50.106;8.694;2023-07-20T12:27:37;26.30;39.60
74666;DHT22;71408;50.106;8.694;2023-07-20T12:30:07;26.30;39.60
74666;DHT22;71408;50.106;8.694;2023-07-20T12:32:33;26.20;39.60
74666;DHT22;71408;50.106;8.694;2023-07-20T12:34:58;26.20;39.70
74666;DHT22;71408;50.106;8.694;2023-07-20T12:37:25;26.20;39.60
74666;DHT22;71408;50.106;8.694;2023-07-20T12:39:51;26.20;40.10
74666;DHT22;71408;50.106;8.694;2023-07-20T12:42:17;26.20;39.60
74666;DHT22;71408;50.106;8.694;2023-07-20T12:44:42;26.20;39.40
74666;DHT22;71408;50.106;8.694;2023-07-20T12:47:08;26.20;39.20
74666;DHT22;71408;50.106;8.694;2023-07-20T12:49:33;26.30;39.20
74666;DHT22;71408;50.106;8.694;2023-07-20T12:51:59;26.30;38.90
74666;DHT22;71408;50.106;8.694;2023-07-20T12:54:24;26.20;39.10
74666;DHT22;71408;50.106;8.694;2023-07-20T12:56:49;26.30;39.10
74666;DHT22;71408;50.106;8.694;2023-07-20T12:59:15;26.40;39.30
74666;DHT22;71408;50.106;8.694;2023-07-20T13:01:40;26.60;38.90
74666;DHT22;71408;50.106;8.694;2023-07-20T13:04:07;26.70;38.60
74666;DHT22;71408;50.106;8.694;2023-07-20T13:06:35;26.90;38.50
74666;DHT22;71408;50.106;8.694;2023-07-20T13:09:01;26.90;38.20
74666;DHT22;71408;50.106;8.694;2023-07-20T13:11:27;27.00;38.20
74666;DHT22;71408;50.106;8.694;2023-07-20T13:13:53;27.10;37.90
74666;DHT22;71408;50.106;8.694;2023-07-20T13:16:18;27.00;38.10
74666;DHT22;71408;50.106;8.694;2023-07-20T13:18:43;27.00;38.10
74666;DHT22;71408;50.106;8.694;2023-07-20T13:21:09;27.00;38.00
74666;DHT22;71408;50.106;8.694;2023-07-20T13:23:39;27.00;37.80
74666;DHT22;71408;50.106;8.694;2023-07-20T13:26:05;27.10;37.80
74666;DHT22;71408;50.106;8.694;2023-07-20T13:28:30;27.10;37.70
74666;DHT22;71408;50.106;8.694;2023-07-20T13:30:56;27.20;37.50
74666;DHT22;71408;50.106;8.694;2023-07-20T13:33:21;27.20;37.50
74666;DHT22;71408;50.106;8.694;2023-07-20T13:35:46;27.20;37.50
74666;DHT22;71408;50.106;8.694;2023-07-20T13:38:12;27.30;37.70
74666;DHT22;71408;50.106;8.694;2023-07-20T13:40:38;27.30;37.50
74666;DHT22;71408;50.106;8.694;2023-07-20T13:43:03;27.30;37.30
74666;DHT22;71408;50.106;8.694;2023-07-20T13:45:29;27.30;37.30
74666;DHT22;71408;50.106;8.694;2023-07-20T13:47:54;27.40;37.40
74666;DHT22;71408;50.106;8.694;2023-07-20T13:50:20;27.40;37.40
74666;DHT22;71408;50.106;8.694;2023-07-20T13:52:45;27.30;37.20
74666;DHT22;71408;50.106;8.694;2023-07-20T13:55:11;27.40;37.40
74666;DHT22;71408;50.106;8.694;2023-07-20T13:57:36;27.40;36.90
74666;DHT22;71408;50.106;8.694;2023-07-20T14:00:05;27.40;36.90
74666;DHT22;71408;50.106;8.694;2023-07-20T14:02:31;27.30;37.00
74666;DHT22;71408;50.106;8.694;2023-07-20T14:04:56;27.30;37.20
74666;DHT22;71408;50.106;8.694;2023-07-20T14:07:22;27.30;37.20
74666;DHT22;71408;50.106;8.694;2023-07-20T14:09:48;27.30;37.20
74666;DHT22;71408;50.106;8.694;2023-07-20T14:12:13;27.30;37.30
74666;DHT22;71408;50.106;8.694;2023-07-20T14:14:40;27.40;37.40
74666;DHT22;71408;50.106;8.694;2023-07-20T14:17:06;27.40;36.30
74666;DHT22;71408;50.106;8.694;2023-07-20T14:19:32;27.40;36.30
74666;DHT22;71408;50.106;8.694;2023-07-20T14:21:57;27.50;36.30
74666;DHT22;71408;50.106;8.694;2023-07-20T14:24:25;27.40;36.40
74666;DHT22;71408;50.106;8.694;2023-07-20T14:26:50;27.40;36.10
74666;DHT22;71408;50.106;8.694;2023-07-20T14:29:16;27.40;36.30
74666;DHT22;71408;50.106;8.694;2023-07-20T14:31:43;27.40;36.30
74666;DHT22;71408;50.106;8.694;2023-07-20T14:34:09;27.40;36.10
74666;DHT22;71408;50.106;8.694;2023-07-20T14:36:34;27.40;35.90
74666;DHT22;71408;50.106;8.694;2023-07-20T14:39:00;27.40;35.80
74666;DHT22;71408;50.106;8.694;2023-07-20T14:41:25;27.40;35.60
74666;DHT22;71408;50.106;8.694;2023-07-20T14:43:51;27.40;35.90
74666;DHT22;71408;50.106;8.694;2023-07-20T14:46:17;27.40;36.00
74666;DHT22;71408;50.106;8.694;2023-07-20T14:48:42;27.30;36.10
74666;DHT22;71408;50.106;8.694;2023-07-20T14:51:08;27.30;35.70
74666;DHT22;71408;50.106;8.694;2023-07-20T14:53:33;27.40;35.80
74666;DHT22;71408;50.106;8.694;2023-07-20T14:56:00;27.40;35.60
74666;DHT22;71408;50.106;8.694;2023-07-20T14:58:26;27.40;35.50
74666;DHT22;71408;50.106;8.694;2023-07-20T15:00:51;27.40;35.80
74666;DHT22;71408;50.106;8.694;2023-07-20T15:03:17;27.40;36.30
74666;DHT22;71408;50.106;8.694;2023-07-20T15:05:42;27.40;35.60
74666;DHT22;71408;50.106;8.694;2023-07-20T15:08:08;27.40;35.40
74666;DHT22;71408;50.106;8.694;2023-07-20T15:10:34;27.40;35.60
74666;DHT22;71408;50.106;8.694;2023-07-20T15:12:59;27.50;35.60
74666;DHT22;71408;50.106;8.694;2023-07-20T15:15:25;27.50;35.70
74666;DHT22;71408;50.106;8.694;2023-07-20T15:17:50;27.40;35.60
74666;DHT22;71408;50.106;8.694;2023-07-20T15:20:16;27.40;35.60
74666;DHT22;71408;50.106;8.694;2023-07-20T15:22:42;27.50;35.40
74666;DHT22;71408;50.106;8.694;2023-07-20T15:25:08;27.40;35.60
74666;DHT22;71408;50.106;8.694;2023-07-20T15:27:36;27.50;36.10
74666;DHT22;71408;50.106;8.694;2023-07-20T15:30:01;27.50;35.50
74666;DHT22;71408;50.106;8.694;2023-07-20T15:32:27;27.50;35.50
74666;DHT22;71408;50.106;8.694;2023-07-20T15:34:52;27.50;35.60
74666;DHT22;71408;50.106;8.694;2023-07-20T15:37:18;27.50;35.40
74666;DHT22;71408;50.106;8.694;2023-07-20T15:39:43;27.50;35.30
74666;DHT22;71408;50.106;8.694;2023-07-20T15:42:09;27.50;35.40